Time;durP1;ratioP1;P1;durP2;ratioP2;P2;SDS_P1;SDS_P2;PMS_P1;PMS_P2;Temp;Humidity;BMP_temperature;BMP_pressure;BME280_temperature;BME280_humidity;BME280_pressure;Samples;Min_cycle;Max_cycle;Signal;HPM_P1;HPM_P2
2022/05/02 00:00:45;;;;;;;0.40;0.40;;;10.80;99.90;;;;;;5033674;28;20443;-72
2022/05/02 00:03:33;;;;;;;0.40;0.40;;;10.70;99.90;;;;;;5034353;28;20456;-73
2022/05/02 00:06:21;;;;;;;0.50;0.50;;;10.70;99.90;;;;;;5035848;28;20512;-72
2022/05/02 00:09:09;;;;;;;0.50;0.50;;;10.70;99.90;;;;;;5036022;28;20433;-73
2022/05/02 00:11:59;;;;;;;0.50;0.50;;;10.60;99.90;;;;;;5034168;28;20787;-72
2022/05/02 00:14:47;;;;;;;0.40;0.40;;;10.60;99.90;;;;;;5034801;28;20511;-73
2022/05/02 00:20:41;;;;;;;0.40;0.40;;;10.60;99.90;;;;;;5032631;28;20968;-73
2022/05/02 00:23:30;;;;;;;0.50;0.50;;;10.50;99.90;;;;;;5035014;28;20483;-72
2022/05/02 00:26:18;;;;;;;0.50;0.50;;;10.50;99.90;;;;;;5032969;28;20429;-73
2022/05/02 00:29:07;;;;;;;0.50;0.50;;;10.50;99.90;;;;;;5032789;28;20429;-73
2022/05/02 00:31:55;;;;;;;0.40;0.40;;;10.40;99.90;;;;;;5032201;28;20999;-72
2022/05/02 00:34:43;;;;;;;0.50;0.50;;;10.40;99.90;;;;;;5034193;28;20433;-72
2022/05/02 00:37:31;;;;;;;0.40;0.40;;;10.50;99.90;;;;;;5033098;28;20440;-74
2022/05/02 00:40:19;;;;;;;0.40;0.40;;;10.50;99.90;;;;;;5034014;28;20960;-73
2022/05/02 00:43:08;;;;;;;0.40;0.40;;;10.60;99.90;;;;;;5032176;28;20524;-71
2022/05/02 00:45:57;;;;;;;0.50;0.50;;;10.60;99.90;;;;;;5033638;28;20542;-73
2022/05/02 00:48:45;;;;;;;0.40;0.40;;;10.70;99.90;;;;;;5034714;28;20795;-73
2022/05/02 00:51:33;;;;;;;0.50;0.50;;;10.60;99.90;;;;;;5033919;28;20559;-72
2022/05/02 00:54:21;;;;;;;0.50;0.50;;;10.60;99.90;;;;;;5033034;28;21032;-72
2022/05/02 00:57:12;;;;;;;0.40;0.40;;;10.60;99.90;;;;;;5031864;28;20472;-72
2022/05/02 01:00:01;;;;;;;0.40;0.40;;;10.60;99.90;;;;;;5034541;28;20457;-72
2022/05/02 01:02:50;;;;;;;0.40;0.40;;;10.60;99.90;;;;;;5033441;28;20949;-71
2022/05/02 01:07:08;;;;;;;0.40;0.40;;;10.60;99.90;;;;;;5033711;28;20468;-73
2022/05/02 01:08:47;;;;;;;0.40;0.40;;;10.40;99.90;;;;;;5032620;28;20833;-72
2022/05/02 01:11:36;;;;;;;0.50;0.50;;;10.30;99.90;;;;;;5033037;28;20421;-72
2022/05/02 01:14:24;;;;;;;0.40;0.40;;;10.20;99.90;;;;;;5034401;28;21024;-72
2022/05/02 01:17:12;;;;;;;0.40;0.40;;;10.10;99.90;;;;;;5018620;28;20472;-72
2022/05/02 01:20:06;;;;;;;0.50;0.50;;;9.90;99.90;;;;;;5033570;28;20430;-72
2022/05/02 01:22:54;;;;;;;0.50;0.50;;;9.80;99.90;;;;;;5033473;28;20539;-72
2022/05/02 01:25:42;;;;;;;1.90;1.90;;;9.60;99.90;;;;;;5032138;28;20469;-71
2022/05/02 01:28:31;;;;;;;0.50;0.50;;;9.60;99.90;;;;;;5032907;28;20522;-73
2022/05/02 01:31:19;;;;;;;0.50;0.50;;;9.50;99.90;;;;;;5032506;28;20467;-72
2022/05/02 01:34:07;;;;;;;0.50;0.50;;;9.60;99.90;;;;;;5033517;28;20455;-72
2022/05/02 01:36:57;;;;;;;0.40;0.40;;;9.50;99.90;;;;;;5032256;28;20426;-72
2022/05/02 01:39:45;;;;;;;0.50;0.50;;;9.50;99.90;;;;;;5032787;28;20479;-73
2022/05/02 01:42:33;;;;;;;0.40;0.40;;;9.50;99.90;;;;;;5032706;28;20428;-73
2022/05/02 01:45:21;;;;;;;0.50;0.50;;;9.50;99.90;;;;;;5033407;28;20557;-72
2022/05/02 01:48:09;;;;;;;0.50;0.50;;;9.40;99.90;;;;;;5033033;28;20809;-72
2022/05/02 01:50:58;;;;;;;0.50;0.50;;;9.40;99.90;;;;;;5032756;28;20433;-73
2022/05/02 01:53:47;;;;;;;0.50;0.50;;;9.30;99.90;;;;;;5032061;28;20437;-72
2022/05/02 01:56:36;;;;;;;0.40;0.40;;;9.30;99.90;;;;;;5032029;28;20417;-73
2022/05/02 01:59:24;;;;;;;0.40;0.40;;;9.20;99.90;;;;;;5032121;28;20417;-72
2022/05/02 02:02:12;;;;;;;0.50;0.50;;;9.10;99.90;;;;;;5032727;28;20471;-72
2022/05/02 02:08:07;;;;;;;0.40;0.40;;;8.90;99.90;;;;;;5035474;28;20452;-74
2022/05/02 02:10:58;;;;;;;0.40;0.40;;;8.80;99.90;;;;;;5036580;28;20519;-73
2022/05/02 02:13:46;;;;;;;0.40;0.40;;;8.70;99.90;;;;;;5038007;28;20946;-72
2022/05/02 02:16:35;;;;;;;0.50;0.50;;;8.60;99.90;;;;;;5036138;28;20528;-72
2022/05/02 02:19:23;;;;;;;0.50;0.50;;;8.60;99.90;;;;;;5036018;28;20429;-72
2022/05/02 02:22:20;;;;;;;0.40;0.40;;;8.40;99.90;;;;;;5037542;28;20429;-71
2022/05/02 02:25:08;;;;;;;0.50;0.50;;;8.50;99.90;;;;;;5036503;28;20622;-72
2022/05/02 02:28:01;;;;;;;0.50;0.50;;;8.30;99.90;;;;;;5035465;28;20520;-72
2022/05/02 02:30:49;;;;;;;0.50;0.50;;;8.30;99.90;;;;;;5035985;28;20496;-72
2022/05/02 02:33:38;;;;;;;0.50;0.50;;;8.20;99.90;;;;;;5035023;28;20597;-72
2022/05/02 02:36:26;;;;;;;0.50;0.50;;;8.20;99.90;;;;;;5037298;28;20586;-72
2022/05/02 02:39:14;;;;;;;0.40;0.40;;;8.10;99.90;;;;;;5035654;28;20522;-74
2022/05/02 02:42:02;;;;;;;0.47;0.47;;;8.00;99.90;;;;;;5035860;28;20491;-72
2022/05/02 02:44:51;;;;;;;0.50;0.50;;;8.00;99.90;;;;;;5035725;28;20465;-72
2022/05/02 02:47:40;;;;;;;0.40;0.40;;;7.90;99.90;;;;;;5036425;28;20432;-72
2022/05/02 02:50:28;;;;;;;0.50;0.50;;;7.90;99.90;;;;;;5035726;28;20430;-73
2022/05/02 02:53:16;;;;;;;0.43;0.43;;;7.90;99.90;;;;;;5035380;28;20933;-72
2022/05/02 02:56:04;;;;;;;0.50;0.50;;;7.80;99.90;;;;;;5036916;28;20425;-72
2022/05/02 02:58:52;;;;;;;0.50;0.50;;;7.80;99.90;;;;;;5036514;28;20825;-72
2022/05/02 03:01:42;;;;;;;0.50;0.50;;;7.70;99.90;;;;;;5036942;28;20476;-72
2022/05/02 03:07:37;;;;;;;0.50;0.50;;;7.60;99.90;;;;;;5036118;28;20421;-73
2022/05/02 03:10:26;;;;;;;0.40;0.40;;;7.60;99.90;;;;;;5035741;28;20433;-72
2022/05/02 03:13:14;;;;;;;0.50;0.50;;;7.50;99.90;;;;;;5036030;28;20417;-72
2022/05/02 03:16:02;;;;;;;0.50;0.50;;;7.40;99.90;;;;;;5036651;28;20417;-71
2022/05/02 03:18:52;;;;;;;0.50;0.50;;;7.40;99.90;;;;;;5037239;28;20914;-72
2022/05/02 03:21:40;;;;;;;0.50;0.50;;;7.30;99.90;;;;;;5036626;28;21215;-72
2022/05/02 03:24:28;;;;;;;0.40;0.40;;;7.40;99.90;;;;;;5036905;28;20977;-72
2022/05/02 03:27:16;;;;;;;0.50;0.50;;;7.30;99.90;;;;;;5035541;28;20499;-72
2022/05/02 03:30:05;;;;;;;0.50;0.50;;;7.30;99.90;;;;;;5035548;28;20426;-72
2022/05/02 03:32:53;;;;;;;0.50;0.50;;;7.30;99.90;;;;;;5035891;28;20914;-71
2022/05/02 03:35:43;;;;;;;0.50;0.50;;;7.30;99.90;;;;;;5036278;28;20437;-71
2022/05/02 03:38:31;;;;;;;0.50;0.50;;;7.20;99.90;;;;;;5035299;28;20461;-73
2022/05/02 03:41:19;;;;;;;0.50;0.50;;;7.20;99.90;;;;;;5036781;28;20440;-71
2022/05/02 03:44:07;;;;;;;0.50;0.50;;;7.20;99.90;;;;;;5036288;28;20445;-71
2022/05/02 03:46:55;;;;;;;0.50;0.50;;;7.20;99.90;;;;;;5036590;28;20840;-71
2022/05/02 03:49:43;;;;;;;0.50;0.50;;;7.20;99.90;;;;;;5035423;28;20425;-72
2022/05/02 03:52:33;;;;;;;0.40;0.40;;;7.20;99.90;;;;;;5034886;28;20580;-72
2022/05/02 03:55:21;;;;;;;0.50;0.50;;;7.10;99.90;;;;;;5034808;28;20499;-71
2022/05/02 03:58:09;;;;;;;0.43;0.43;;;7.20;99.90;;;;;;5035876;28;20491;-72
2022/05/02 04:00:57;;;;;;;0.40;0.40;;;7.20;99.90;;;;;;5035717;28;20512;-72
2022/05/02 04:03:46;;;;;;;0.40;0.40;;;7.20;99.90;;;;;;5034790;28;20472;-72
2022/05/02 04:06:34;;;;;;;1.03;1.03;;;7.20;99.90;;;;;;5035078;28;20472;-72
2022/05/02 04:09:24;;;;;;;0.40;0.40;;;7.10;99.90;;;;;;5035987;28;20425;-72
2022/05/02 04:12:12;;;;;;;0.40;0.40;;;7.20;99.90;;;;;;5034431;28;20458;-71
2022/05/02 04:15:00;;;;;;;0.50;0.50;;;7.30;99.90;;;;;;5037360;28;20475;-71
2022/05/02 04:17:48;;;;;;;0.83;0.83;;;7.10;99.90;;;;;;5043711;28;20416;-70
2022/05/02 04:20:36;;;;;;;0.40;0.40;;;7.20;99.90;;;;;;5035500;28;20791;-71
2022/05/02 04:23:24;;;;;;;1.57;1.47;;;7.20;99.90;;;;;;5034137;28;20422;-70
2022/05/02 04:26:13;;;;;;;0.40;0.40;;;7.30;99.90;;;;;;5035090;28;20465;-71
2022/05/02 04:29:01;;;;;;;0.40;0.40;;;7.30;99.90;;;;;;5033742;28;20425;-73
2022/05/02 04:31:49;;;;;;;0.40;0.40;;;7.30;99.90;;;;;;5033618;28;20479;-72
2022/05/02 04:34:38;;;;;;;0.50;0.50;;;7.40;99.90;;;;;;5033879;28;20452;-72
2022/05/02 04:37:26;;;;;;;0.40;0.40;;;7.40;99.90;;;;;;5034751;28;20484;-72
2022/05/02 04:40:14;;;;;;;0.50;0.50;;;7.40;99.90;;;;;;5034058;28;20475;-72
2022/05/02 04:43:03;;;;;;;0.73;0.73;;;7.50;99.90;;;;;;5034327;28;20429;-71
2022/05/02 04:45:51;;;;;;;0.40;0.40;;;7.50;99.90;;;;;;5034717;28;20464;-73
2022/05/02 04:48:40;;;;;;;0.50;0.50;;;7.50;99.90;;;;;;5034825;28;20433;-72
2022/05/02 04:51:28;;;;;;;0.50;0.50;;;7.50;99.90;;;;;;5035387;28;20433;-72
2022/05/02 04:54:16;;;;;;;0.43;0.43;;;7.70;99.90;;;;;;5035317;28;20923;-72
2022/05/02 04:57:04;;;;;;;0.47;0.47;;;7.60;99.90;;;;;;5034486;28;20867;-72
2022/05/02 04:59:54;;;;;;;0.40;0.40;;;7.80;99.90;;;;;;5033481;28;20571;-72
2022/05/02 05:02:42;;;;;;;0.40;0.40;;;7.80;99.90;;;;;;5034334;28;20907;-72
2022/05/02 05:05:30;;;;;;;0.40;0.40;;;7.90;99.90;;;;;;5034465;28;20453;-73
2022/05/02 05:08:18;;;;;;;0.40;0.40;;;8.10;99.90;;;;;;5032174;28;20520;-74
2022/05/02 05:11:28;;;;;;;0.40;0.40;;;8.10;99.90;;;;;;5032657;28;20425;-71
2022/05/02 05:17:52;;;;;;;0.50;0.50;;;8.30;99.90;;;;;;4973066;28;20511;-73
2022/05/02 05:20:47;;;;;;;0.50;0.50;;;8.50;99.90;;;;;;4972138;28;20440;-72
2022/05/02 05:23:57;;;;;;;0.47;0.47;;;8.60;99.90;;;;;;5031837;28;20855;-72
2022/05/02 05:26:59;;;;;;;0.50;0.50;;;8.70;99.90;;;;;;5033472;28;20469;-73
2022/05/02 05:29:53;;;;;;;0.40;0.40;;;8.80;99.90;;;;;;5033700;28;20525;-73
2022/05/02 05:32:47;;;;;;;0.50;0.50;;;8.90;99.90;;;;;;5034164;28;20429;-74
2022/05/02 05:35:45;;;;;;;0.70;0.70;;;8.90;99.90;;;;;;5031944;28;21116;-73
2022/05/02 05:38:43;;;;;;;0.50;0.50;;;9.00;99.90;;;;;;5034567;28;20945;-73
2022/05/02 05:41:42;;;;;;;0.50;0.50;;;7.80;99.90;;;;;;5032755;28;20465;-73
2022/05/02 05:44:49;;;;;;;0.40;0.40;;;9.20;99.90;;;;;;5035424;28;20461;-74
2022/05/02 05:47:53;;;;;;;0.40;0.40;;;9.40;99.90;;;;;;5036892;28;20543;-73
2022/05/02 05:50:46;;;;;;;0.40;0.40;;;9.50;99.90;;;;;;5035259;28;20523;-72
2022/05/02 05:53:43;;;;;;;0.50;0.50;;;9.60;99.90;;;;;;5035998;28;20647;-72
2022/05/02 05:56:52;;;;;;;0.40;0.40;;;9.60;99.90;;;;;;5036399;28;20531;-74
2022/05/02 05:59:53;;;;;;;0.50;0.50;;;9.70;99.90;;;;;;5034996;28;20510;-74
2022/05/02 06:03:07;;;;;;;0.40;0.40;;;9.80;99.90;;;;;;5035362;28;20431;-72
2022/05/02 06:05:55;;;;;;;0.50;0.50;;;9.90;99.90;;;;;;5036585;28;20448;-71
2022/05/02 06:08:49;;;;;;;0.50;0.50;;;10.00;99.90;;;;;;5023333;28;20933;-73
2022/05/02 06:11:41;;;;;;;0.50;0.50;;;10.10;99.90;;;;;;5035455;28;20552;-72
2022/05/02 06:14:33;;;;;;;0.50;0.50;;;10.20;99.90;;;;;;5028555;28;20526;-73
2022/05/02 06:20:30;;;;;;;0.40;0.40;;;10.50;99.90;;;;;;5036006;28;20440;-74
2022/05/02 06:23:18;;;;;;;0.40;0.40;;;10.70;99.90;;;;;;5041904;28;20486;-72
2022/05/02 06:26:07;;;;;;;0.40;0.40;;;10.80;99.90;;;;;;5037672;28;20439;-72
2022/05/02 06:28:55;;;;;;;0.40;0.40;;;10.90;99.90;;;;;;5037894;28;20475;-71
2022/05/02 06:31:47;;;;;;;0.50;0.50;;;11.10;99.90;;;;;;5036630;28;20802;-74
2022/05/02 06:34:35;;;;;;;0.50;0.50;;;11.30;99.90;;;;;;5036973;28;20445;-74
2022/05/02 06:37:36;;;;;;;0.50;0.50;;;11.60;99.90;;;;;;5035664;28;20469;-74
2022/05/02 06:40:32;;;;;;;0.47;0.47;;;11.80;99.90;;;;;;5037859;28;20429;-73
2022/05/02 06:43:29;;;;;;;0.60;0.60;;;12.00;99.90;;;;;;5035234;28;20863;-70
2022/05/02 06:46:20;;;;;;;0.50;0.50;;;12.30;99.90;;;;;;5029600;28;20961;-72
2022/05/02 06:49:12;;;;;;;0.47;0.47;;;12.60;99.90;;;;;;5018402;28;20421;-72
2022/05/02 06:52:08;;;;;;;0.40;0.40;;;13.00;99.90;;;;;;5036557;28;20477;-71
2022/05/02 06:55:07;;;;;;;0.40;0.40;;;13.20;99.90;;;;;;5036681;28;20437;-73
2022/05/02 06:58:06;;;;;;;0.50;0.50;;;13.50;99.90;;;;;;5034692;28;20953;-73
2022/05/02 07:01:02;;;;;;;0.50;0.50;;;13.70;99.90;;;;;;5036613;28;20452;-74
2022/05/02 07:04:10;;;;;;;0.40;0.40;;;13.90;99.90;;;;;;5035805;28;20441;-73
2022/05/02 07:07:10;;;;;;;0.40;0.40;;;14.10;99.90;;;;;;5041983;28;20230;-73
2022/05/02 07:10:05;;;;;;;0.50;0.50;;;14.20;99.90;;;;;;5044592;28;20424;-74
2022/05/02 07:13:02;;;;;;;0.40;0.40;;;14.20;99.90;;;;;;5041405;28;20437;-71
2022/05/02 07:15:52;;;;;;;0.50;0.50;;;14.30;99.90;;;;;;5031874;28;20476;-71
2022/05/02 07:18:50;;;;;;;0.93;0.93;;;14.30;99.90;;;;;;5036877;28;20429;-71
2022/05/02 07:21:42;;;;;;;0.50;0.50;;;14.30;99.90;;;;;;5035172;28;20205;-73
2022/05/02 07:24:46;;;;;;;0.40;0.40;;;14.30;99.90;;;;;;5037539;28;20510;-72
2022/05/02 07:28:00;;;;;;;0.40;0.40;;;14.20;99.90;;;;;;5037852;28;20567;-73
2022/05/02 07:30:50;;;;;;;0.40;0.40;;;14.20;99.90;;;;;;5038048;28;20707;-72
2022/05/02 07:33:40;;;;;;;0.50;0.50;;;14.50;99.90;;;;;;5033774;28;21041;-70
2022/05/02 07:36:31;;;;;;;0.50;0.50;;;14.40;99.90;;;;;;5034127;28;20437;-71
2022/05/02 07:39:22;;;;;;;0.50;0.50;;;14.40;99.90;;;;;;5034803;28;20285;-74
2022/05/02 07:42:13;;;;;;;0.40;0.40;;;14.50;99.90;;;;;;5032306;28;20210;-71
2022/05/02 07:45:07;;;;;;;0.47;0.47;;;14.70;99.90;;;;;;5025985;28;20476;-74
2022/05/02 07:48:00;;;;;;;0.40;0.40;;;14.70;99.90;;;;;;5026896;28;20253;-73
2022/05/02 07:50:51;;;;;;;0.47;0.47;;;14.70;99.90;;;;;;5033297;28;20945;-74
2022/05/02 07:53:41;;;;;;;0.40;0.40;;;14.70;99.90;;;;;;5034954;28;20202;-72
2022/05/02 07:56:32;;;;;;;0.40;0.40;;;14.40;99.90;;;;;;5029792;28;20667;-75
2022/05/02 07:59:25;;;;;;;0.40;0.40;;;14.30;99.90;;;;;;5034062;28;20429;-74
2022/05/02 08:02:16;;;;;;;0.40;0.40;;;14.30;99.90;;;;;;5031731;28;20206;-72
2022/05/02 08:05:06;;;;;;;0.50;0.50;;;14.20;99.90;;;;;;5032698;28;21000;-75
2022/05/02 08:08:01;;;;;;;0.40;0.40;;;14.30;99.90;;;;;;5033036;28;20226;-74
2022/05/02 08:11:03;;;;;;;0.40;0.40;;;14.40;99.90;;;;;;5034667;28;20206;-74
2022/05/02 08:14:03;;;;;;;0.50;0.50;;;14.40;99.90;;;;;;5033391;28;20263;-72
2022/05/02 08:17:02;;;;;;;0.50;0.50;;;14.50;99.90;;;;;;5033178;28;20206;-72
2022/05/02 08:20:00;;;;;;;0.40;0.40;;;14.50;99.90;;;;;;5034219;28;20198;-73
2022/05/02 08:29:23;;;;;;;0.40;0.40;;;14.70;99.90;;;;;;5021695;28;20226;-74
2022/05/02 08:32:20;;;;;;;0.40;0.40;;;14.60;99.90;;;;;;5025187;28;20229;-76
2022/05/02 08:35:14;;;;;;;0.40;0.40;;;14.80;99.90;;;;;;5037863;28;20303;-76
2022/05/02 08:38:18;;;;;;;0.50;0.50;;;14.90;99.90;;;;;;5030582;28;20575;-72
2022/05/02 08:41:47;;;;;;;0.40;0.40;;;14.90;99.90;;;;;;5034990;28;20670;-74
2022/05/02 08:45:13;;;;;;;0.40;0.40;;;15.00;99.90;;;;;;5022819;28;20229;-75
2022/05/02 08:48:48;;;;;;;0.40;0.40;;;15.00;99.90;;;;;;5018436;28;20878;-73
2022/05/02 08:52:22;;;;;;;0.60;0.60;;;14.90;99.90;;;;;;5013882;28;20210;-73
2022/05/02 08:55:33;;;;;;;0.40;0.40;;;15.00;99.90;;;;;;5015450;28;20468;-75
2022/05/02 08:59:06;;;;;;;0.40;0.40;;;15.00;99.90;;;;;;5023128;28;20228;-74
2022/05/02 09:02:38;;;;;;;0.40;0.40;;;15.10;99.90;;;;;;4982107;28;20690;-75
2022/05/02 09:05:41;;;;;;;0.40;0.40;;;15.30;99.90;;;;;;5034110;28;20237;-74
2022/05/02 09:09:03;;;;;;;0.47;0.47;;;15.40;99.90;;;;;;5034278;28;20227;-72
2022/05/02 09:12:41;;;;;;;0.40;0.40;;;15.50;99.90;;;;;;5023847;28;20202;-72
2022/05/02 09:16:11;;;;;;;0.40;0.40;;;15.70;99.90;;;;;;5038390;28;20840;-71
2022/05/02 09:19:40;;;;;;;0.40;0.40;;;15.70;99.90;;;;;;5038142;28;20193;-76
2022/05/02 09:23:00;;;;;;;0.50;0.50;;;15.70;99.90;;;;;;5025763;28;20248;-72
2022/05/02 09:26:11;;;;;;;0.40;0.40;;;15.70;99.90;;;;;;5038221;28;20304;-75
2022/05/02 09:29:30;;;;;;;0.50;0.50;;;15.80;99.90;;;;;;5036418;28;20221;-72
2022/05/02 09:32:22;;;;;;;0.50;0.50;;;16.00;99.90;;;;;;5036079;28;20209;-74
2022/05/02 09:35:14;;;;;;;0.40;0.40;;;15.90;99.90;;;;;;5040040;28;20276;-73
2022/05/02 09:38:18;;;;;;;0.40;0.40;;;16.00;99.90;;;;;;5023629;28;20544;-74
2022/05/02 09:41:17;;;;;;;0.40;0.40;;;15.90;99.10;;;;;;5035685;28;20221;-75
2022/05/02 09:50:57;;;;;;;0.40;0.40;;;16.00;99.40;;;;;;5037635;28;20744;-73
2022/05/02 09:53:56;;;;;;;0.40;0.40;;;16.20;99.30;;;;;;5035629;28;20351;-74
2022/05/02 09:56:46;;;;;;;0.40;0.40;;;16.20;98.80;;;;;;5030365;28;20206;-73
2022/05/02 09:59:43;;;;;;;0.40;0.40;;;16.20;99.00;;;;;;5027196;28;20992;-75
2022/05/02 10:02:36;;;;;;;0.40;0.40;;;16.40;98.40;;;;;;5029405;28;20209;-74
2022/05/02 10:05:30;;;;;;;0.50;0.50;;;16.30;98.10;;;;;;5037823;28;20710;-75
2022/05/02 10:08:34;;;;;;;0.50;0.50;;;16.40;98.00;;;;;;5019302;28;20230;-75
2022/05/02 10:12:03;;;;;;;0.40;0.40;;;16.40;97.80;;;;;;5027962;28;20216;-76
2022/05/02 10:15:00;;;;;;;0.40;0.40;;;16.50;97.50;;;;;;4968512;28;20263;-73
2022/05/02 10:18:17;;;;;;;0.40;0.40;;;16.50;97.10;;;;;;4976146;28;20211;-74
2022/05/02 10:21:14;;;;;;;0.40;0.40;;;16.70;98.10;;;;;;5032370;28;20206;-74
2022/05/02 10:24:25;;;;;;;0.40;0.40;;;16.90;97.20;;;;;;5022067;28;20222;-76
2022/05/02 10:27:28;;;;;;;0.40;0.40;;;17.00;97.00;;;;;;5024990;28;20197;-73
2022/05/02 10:30:19;;;;;;;0.40;0.40;;;17.30;97.10;;;;;;5016055;28;20230;-75
2022/05/02 10:33:13;;;;;;;0.40;0.40;;;17.50;96.30;;;;;;5030157;28;20566;-74
2022/05/02 10:36:04;;;;;;;0.40;0.40;;;17.50;95.30;;;;;;5036392;28;20707;-72
2022/05/02 10:38:55;;;;;;;0.40;0.40;;;17.30;95.30;;;;;;5035073;28;20205;-71
2022/05/02 10:41:48;;;;;;;0.40;0.40;;;17.40;95.70;;;;;;5033754;28;20678;-76
2022/05/02 10:44:47;;;;;;;0.40;0.40;;;17.70;95.70;;;;;;5036416;28;20225;-72
2022/05/02 10:47:44;;;;;;;0.40;0.40;;;17.60;95.20;;;;;;5036410;28;20263;-74
2022/05/02 10:50:35;;;;;;;0.73;0.73;;;17.60;95.40;;;;;;5034518;28;20233;-72
2022/05/02 10:53:58;;;;;;;0.40;0.40;;;17.70;95.50;;;;;;5031594;28;20217;-72
2022/05/02 10:56:54;;;;;;;0.40;0.40;;;17.60;95.10;;;;;;5023105;28;20198;-75
2022/05/02 10:59:45;;;;;;;0.40;0.40;;;17.50;95.10;;;;;;5034478;28;20194;-75
2022/05/02 11:02:54;;;;;;;0.40;0.40;;;17.40;94.80;;;;;;5031134;28;20613;-76
2022/05/02 11:05:48;;;;;;;0.40;0.40;;;17.40;95.40;;;;;;5033615;28;20291;-78
2022/05/02 11:08:43;;;;;;;0.40;0.40;;;17.50;95.60;;;;;;5017571;28;20203;-75
2022/05/02 11:11:43;;;;;;;0.40;0.40;;;17.60;95.50;;;;;;5035591;28;20198;-75
2022/05/02 11:14:42;;;;;;;0.40;0.40;;;17.40;94.60;;;;;;4990079;28;1149123;-73
2022/05/02 11:17:45;;;;;;;0.40;0.40;;;17.40;94.70;;;;;;5036139;28;20214;-77
2022/05/02 11:20:46;;;;;;;0.40;0.40;;;17.50;94.60;;;;;;5031705;28;20202;-73
2022/05/02 11:23:48;;;;;;;0.40;0.40;;;17.60;94.40;;;;;;5030132;28;20205;-75
2022/05/02 11:26:43;;;;;;;0.68;0.68;;;17.70;94.80;;;;;;5035122;28;20670;-75
2022/05/02 11:29:45;;;;;;;1.67;1.30;;;17.70;94.40;;;;;;5032073;28;20222;-74
2022/05/02 11:33:09;;;;;;;0.50;0.50;;;17.60;94.40;;;;;;5034267;28;20292;-72
2022/05/02 11:36:03;;;;;;;0.40;0.40;;;17.50;93.90;;;;;;5036343;28;20230;-76
2022/05/02 11:38:56;;;;;;;2.83;2.25;;;17.60;93.80;;;;;;5038802;28;20252;-76
2022/05/02 11:41:47;;;;;;;1.13;1.02;;;17.80;93.70;;;;;;5031473;28;20210;-74
2022/05/02 11:44:47;;;;;;;1.15;0.90;;;17.80;93.50;;;;;;5034539;28;20222;-76
2022/05/02 11:47:57;;;;;;;0.40;0.40;;;17.70;93.40;;;;;;5037986;28;20204;-72
2022/05/02 11:50:47;;;;;;;1.20;0.98;;;17.90;93.70;;;;;;5023910;28;20226;-75
2022/05/02 11:53:40;;;;;;;1.48;1.38;;;18.10;93.50;;;;;;5033086;28;20217;-73
2022/05/02 11:56:40;;;;;;;0.63;0.63;;;18.30;93.40;;;;;;5022270;28;20194;-75
2022/05/02 11:59:36;;;;;;;0.50;0.50;;;18.40;93.30;;;;;;5033915;28;20202;-74
2022/05/02 12:02:45;;;;;;;0.68;0.63;;;18.40;93.80;;;;;;5019391;28;20202;-73
2022/05/02 12:05:40;;;;;;;0.40;0.40;;;18.50;93.30;;;;;;5032862;28;20260;-74
2022/05/02 12:08:34;;;;;;;0.60;0.60;;;18.50;92.80;;;;;;5030897;28;20202;-72
2022/05/02 12:11:24;;;;;;;0.68;0.68;;;18.50;93.50;;;;;;5033764;28;20210;-76
2022/05/02 12:14:19;;;;;;;1.52;1.52;;;18.50;93.10;;;;;;5026744;28;20284;-74
2022/05/02 12:17:09;;;;;;;1.15;0.93;;;18.70;93.20;;;;;;5027273;28;20293;-77
2022/05/02 12:19:58;;;;;;;1.02;0.77;;;18.70;93.00;;;;;;5034875;28;20198;-76
2022/05/02 12:22:53;;;;;;;0.70;0.70;;;18.70;92.80;;;;;;5034425;28;20714;-76
2022/05/02 12:25:49;;;;;;;0.50;0.50;;;18.70;92.60;;;;;;5034865;28;20310;-77
2022/05/02 12:28:42;;;;;;;1.40;1.30;;;18.80;92.30;;;;;;5029696;28;20205;-75
2022/05/02 12:31:32;;;;;;;0.82;0.80;;;19.00;92.00;;;;;;5033140;28;20303;-76
2022/05/02 12:34:22;;;;;;;0.57;0.55;;;19.10;92.40;;;;;;5016600;28;20726;-79
2022/05/02 12:37:14;;;;;;;0.40;0.40;;;19.00;91.50;;;;;;5028752;28;20205;-76
2022/05/02 12:40:11;;;;;;;0.50;0.50;;;19.00;91.60;;;;;;5038057;28;20631;-75
2022/05/02 12:43:09;;;;;;;4.43;2.13;;;19.40;91.30;;;;;;5032544;28;20217;-74
2022/05/02 12:46:08;;;;;;;3.45;1.33;;;20.20;90.90;;;;;;5031659;28;20217;-73
2022/05/02 12:48:59;;;;;;;0.40;0.40;;;21.20;90.00;;;;;;5033635;28;20193;-72
2022/05/02 12:51:52;;;;;;;1.02;0.90;;;22.20;87.10;;;;;;5034032;28;20202;-73
2022/05/02 12:54:49;;;;;;;0.50;0.50;;;23.40;82.90;;;;;;5020856;28;20222;-73
2022/05/02 13:00:48;;;;;;;0.40;0.40;;;26.00;75.20;;;;;;5020233;28;20300;-71
2022/05/02 13:03:39;;;;;;;0.60;0.60;;;26.30;72.90;;;;;;5031731;28;20218;-72
2022/05/02 13:06:28;;;;;;;0.40;0.40;;;26.90;69.90;;;;;;5030232;28;20205;-70
2022/05/02 13:09:19;;;;;;;0.70;0.70;;;28.00;66.60;;;;;;5026851;28;20281;-71
2022/05/02 13:12:10;;;;;;;0.45;0.45;;;28.80;62.60;;;;;;5028691;28;20225;-70
2022/05/02 13:15:00;;;;;;;5.50;1.55;;;29.10;60.70;;;;;;5030647;28;20225;-70
2022/05/02 13:17:51;;;;;;;0.40;0.40;;;29.50;58.50;;;;;;5027933;28;20270;-71
2022/05/02 13:21:02;;;;;;;1.63;1.30;;;30.60;56.80;;;;;;5030171;28;20194;-71
2022/05/02 13:23:51;;;;;;;0.47;0.47;;;31.40;54.40;;;;;;5032010;28;20279;-71
2022/05/02 13:27:04;;;;;;;1.55;1.45;;;31.70;52.40;;;;;;5031404;28;20589;-71
2022/05/02 13:30:02;;;;;;;0.75;0.73;;;32.80;51.20;;;;;;5032533;28;20233;-72
2022/05/02 13:32:57;;;;;;;0.40;0.40;;;31.60;51.40;;;;;;5014587;28;20191;-71
2022/05/02 13:35:46;;;;;;;1.45;1.45;;;31.60;51.30;;;;;;5012586;28;20222;-72
2022/05/02 13:38:44;;;;;;;0.70;0.70;;;32.50;50.20;;;;;;5016501;28;20680;-72
2022/05/02 13:41:37;;;;;;;1.38;0.88;;;32.00;49.20;;;;;;5028763;28;20270;-70
2022/05/02 13:44:33;;;;;;;0.40;0.40;;;31.40;50.00;;;;;;5025172;28;20248;-71
2022/05/02 13:47:27;;;;;;;0.90;0.75;;;31.40;49.60;;;;;;5033516;28;20605;-72
2022/05/02 13:50:21;;;;;;;0.40;0.40;;;31.80;49.30;;;;;;5036061;28;20229;-71
2022/05/02 13:53:22;;;;;;;1.88;1.65;;;32.40;48.00;;;;;;5028177;28;20194;-73
2022/05/02 13:56:37;;;;;;;0.50;0.50;;;32.40;47.60;;;;;;5032595;28;20206;-71
2022/05/02 13:59:32;;;;;;;2.33;1.40;;;32.10;48.00;;;;;;5048623;23;20305;-69
2022/05/02 14:02:42;;;;;;;1.33;0.98;;;31.80;47.60;;;;;;5023028;28;20199;-72
2022/05/02 14:05:43;;;;;;;0.40;0.40;;;31.20;48.40;;;;;;5023590;28;20199;-72
2022/05/02 14:08:43;;;;;;;0.40;0.40;;;31.40;48.80;;;;;;5025719;28;20202;-70
2022/05/02 14:11:32;;;;;;;2.30;1.20;;;31.20;48.40;;;;;;5025222;28;20218;-69
2022/05/02 14:14:20;;;;;;;0.70;0.70;;;30.20;48.70;;;;;;5025637;28;20203;-69
2022/05/02 14:17:26;;;;;;;0.40;0.40;;;28.50;50.40;;;;;;5020173;28;20202;-70
2022/05/02 14:20:19;;;;;;;0.40;0.32;;;26.60;52.70;;;;;;4991899;28;20265;-70
2022/05/02 14:23:09;;;;;;;1.58;0.95;;;26.00;54.10;;;;;;4994453;28;20219;-70
2022/05/02 14:25:59;;;;;;;0.40;0.40;;;26.10;54.40;;;;;;4996324;28;20219;-69
2022/05/02 14:28:50;;;;;;;0.50;0.50;;;27.00;53.30;;;;;;5010023;28;20929;-69
2022/05/02 14:31:39;;;;;;;0.70;0.70;;;27.00;53.80;;;;;;5009745;28;20903;-71
2022/05/02 14:34:39;;;;;;;2.47;2.15;;;27.00;53.80;;;;;;5000773;28;20231;-68
2022/05/02 14:37:28;;;;;;;0.40;0.40;;;27.00;53.60;;;;;;5001761;28;20323;-69
2022/05/02 14:40:17;;;;;;;1.10;0.98;;;27.50;53.30;;;;;;5004356;28;20228;-70
2022/05/02 14:43:07;;;;;;;0.57;0.57;;;28.30;52.10;;;;;;5005381;28;20702;-70
2022/05/02 14:45:58;;;;;;;0.73;0.73;;;29.10;51.30;;;;;;4996704;28;20300;-70
2022/05/02 14:48:46;;;;;;;0.40;0.40;;;30.20;51.00;;;;;;4996697;28;20342;-70
2022/05/02 14:51:40;;;;;;;0.40;0.40;;;32.00;48.90;;;;;;4999441;28;20306;-70
2022/05/02 14:54:31;;;;;;;0.50;0.50;;;33.40;47.00;;;;;;5006150;28;20636;-72
2022/05/02 14:57:22;;;;;;;1.50;1.40;;;33.10;46.30;;;;;;5005580;28;20280;-70
2022/05/02 15:00:12;;;;;;;0.40;0.40;;;32.90;46.20;;;;;;4993903;28;20326;-70
2022/05/02 15:03:04;;;;;;;1.67;1.20;;;32.70;46.20;;;;;;4990510;28;20229;-70
2022/05/02 15:05:54;;;;;;;0.85;0.85;;;32.00;46.20;;;;;;4994002;28;20286;-70
2022/05/02 15:08:51;;;;;;;0.50;0.50;;;31.00;48.10;;;;;;4994251;28;20273;-70
2022/05/02 15:11:54;;;;;;;0.60;0.60;;;30.60;47.70;;;;;;4997349;28;20215;-70
2022/05/02 15:15:13;;;;;;;0.40;0.40;;;29.90;49.20;;;;;;5004936;28;20297;-70
2022/05/02 15:18:18;;;;;;;1.85;1.58;;;30.50;48.60;;;;;;4999269;28;20277;-70
2022/05/02 15:21:12;;;;;;;0.60;0.50;;;32.00;47.20;;;;;;4999437;28;20206;-70
2022/05/02 15:24:41;;;;;;;0.50;0.50;;;31.40;47.30;;;;;;4997954;28;20674;-70
2022/05/02 15:36:57;;;;;;;0.40;0.40;;;30.10;48.40;;;;;;4992509;28;20748;-70
2022/05/02 15:39:45;;;;;;;1.60;0.73;;;30.20;48.70;;;;;;4997273;28;20224;-70
2022/05/02 15:42:34;;;;;;;0.50;0.50;;;30.00;48.80;;;;;;5003976;28;20250;-70
2022/05/02 15:45:22;;;;;;;0.40;0.40;;;30.20;48.40;;;;;;5003578;28;20203;-70
2022/05/02 15:48:35;;;;;;;6.95;3.08;;;30.00;48.80;;;;;;5003510;28;20203;-69
2022/05/02 15:51:26;;;;;;;0.60;0.60;;;30.40;47.70;;;;;;5000246;28;20246;-69
2022/05/02 15:54:36;;;;;;;0.40;0.40;;;30.00;48.40;;;;;;5002819;28;20695;-68
2022/05/02 15:57:44;;;;;;;0.40;0.35;;;29.40;49.10;;;;;;5002144;28;20242;-70